sensor_id;sensor_type;location;lat;lon;timestamp;P1;durP1;ratioP1;P2;durP2;ratioP2
69588;SDS011;56792;50.644;17.984;2023-11-21T00:01:49;6.70;;;3.50;;
69588;SDS011;56792;50.644;17.984;2023-11-21T00:04:20;5.80;;;4.00;;
69588;SDS011;56792;50.644;17.984;2023-11-21T00:06:51;5.90;;;4.10;;
69588;SDS011;56792;50.644;17.984;2023-11-21T00:09:23;7.30;;;4.60;;
69588;SDS011;56792;50.644;17.984;2023-11-21T00:11:54;6.50;;;4.30;;
69588;SDS011;56792;50.644;17.984;2023-11-21T00:14:25;7.30;;;4.10;;
69588;SDS011;56792;50.644;17.984;2023-11-21T00:16:56;5.30;;;3.80;;
69588;SDS011;56792;50.644;17.984;2023-11-21T00:19:28;6.30;;;3.70;;
69588;SDS011;56792;50.644;17.984;2023-11-21T00:21:59;6.20;;;4.00;;
69588;SDS011;56792;50.644;17.984;2023-11-21T00:24:30;7.60;;;4.20;;
69588;SDS011;56792;50.644;17.984;2023-11-21T00:27:01;7.30;;;4.10;;
69588;SDS011;56792;50.644;17.984;2023-11-21T00:29:32;6.10;;;3.60;;
69588;SDS011;56792;50.644;17.984;2023-11-21T00:32:04;6.00;;;4.00;;
69588;SDS011;56792;50.644;17.984;2023-11-21T00:34:35;6.50;;;3.90;;
69588;SDS011;56792;50.644;17.984;2023-11-21T00:37:07;6.80;;;4.40;;
69588;SDS011;56792;50.644;17.984;2023-11-21T00:39:38;8.60;;;4.20;;
69588;SDS011;56792;50.644;17.984;2023-11-21T00:42:10;6.10;;;4.20;;
69588;SDS011;56792;50.644;17.984;2023-11-21T00:44:42;6.50;;;4.70;;
69588;SDS011;56792;50.644;17.984;2023-11-21T00:47:13;5.60;;;4.40;;
69588;SDS011;56792;50.644;17.984;2023-11-21T00:49:44;6.70;;;4.60;;
69588;SDS011;56792;50.644;17.984;2023-11-21T00:52:17;5.70;;;3.80;;
69588;SDS011;56792;50.644;17.984;2023-11-21T00:54:48;6.40;;;4.20;;
69588;SDS011;56792;50.644;17.984;2023-11-21T00:57:19;6.10;;;3.90;;
69588;SDS011;56792;50.644;17.984;2023-11-21T00:59:50;6.20;;;4.70;;
69588;SDS011;56792;50.644;17.984;2023-11-21T01:02:21;6.70;;;4.10;;
69588;SDS011;56792;50.644;17.984;2023-11-21T01:04:53;9.90;;;4.50;;
69588;SDS011;56792;50.644;17.984;2023-11-21T01:07:24;6.70;;;4.90;;
69588;SDS011;56792;50.644;17.984;2023-11-21T01:09:55;8.00;;;5.30;;
69588;SDS011;56792;50.644;17.984;2023-11-21T01:12:26;8.00;;;5.10;;
69588;SDS011;56792;50.644;17.984;2023-11-21T01:14:57;8.50;;;4.40;;
69588;SDS011;56792;50.644;17.984;2023-11-21T01:17:29;7.30;;;4.80;;
69588;SDS011;56792;50.644;17.984;2023-11-21T01:20:00;7.50;;;4.20;;
69588;SDS011;56792;50.644;17.984;2023-11-21T01:22:34;9.10;;;4.10;;
69588;SDS011;56792;50.644;17.984;2023-11-21T01:25:06;7.40;;;4.60;;
69588;SDS011;56792;50.644;17.984;2023-11-21T01:27:38;7.20;;;4.30;;
69588;SDS011;56792;50.644;17.984;2023-11-21T01:30:12;8.00;;;4.50;;
69588;SDS011;56792;50.644;17.984;2023-11-21T01:32:44;7.70;;;4.30;;
69588;SDS011;56792;50.644;17.984;2023-11-21T01:35:15;7.20;;;4.40;;
69588;SDS011;56792;50.644;17.984;2023-11-21T01:37:47;7.00;;;4.30;;
69588;SDS011;56792;50.644;17.984;2023-11-21T01:40:20;6.50;;;3.40;;
69588;SDS011;56792;50.644;17.984;2023-11-21T01:42:52;7.70;;;4.30;;
69588;SDS011;56792;50.644;17.984;2023-11-21T01:45:24;6.00;;;4.10;;
69588;SDS011;56792;50.644;17.984;2023-11-21T01:47:56;6.90;;;4.30;;
69588;SDS011;56792;50.644;17.984;2023-11-21T01:50:29;6.50;;;4.40;;
69588;SDS011;56792;50.644;17.984;2023-11-21T01:53:00;11.00;;;6.00;;
69588;SDS011;56792;50.644;17.984;2023-11-21T01:55:32;9.50;;;6.10;;
69588;SDS011;56792;50.644;17.984;2023-11-21T01:58:03;8.40;;;5.80;;
69588;SDS011;56792;50.644;17.984;2023-11-21T02:00:35;10.60;;;6.20;;
69588;SDS011;56792;50.644;17.984;2023-11-21T02:03:06;12.30;;;7.00;;
69588;SDS011;56792;50.644;17.984;2023-11-21T02:05:38;9.70;;;7.20;;
69588;SDS011;56792;50.644;17.984;2023-11-21T02:08:09;10.30;;;6.40;;
69588;SDS011;56792;50.644;17.984;2023-11-21T02:10:40;10.80;;;6.60;;
69588;SDS011;56792;50.644;17.984;2023-11-21T02:13:11;10.20;;;6.20;;
69588;SDS011;56792;50.644;17.984;2023-11-21T02:15:44;10.30;;;6.00;;
69588;SDS011;56792;50.644;17.984;2023-11-21T02:18:18;11.70;;;7.30;;
69588;SDS011;56792;50.644;17.984;2023-11-21T02:20:50;8.80;;;6.00;;
69588;SDS011;56792;50.644;17.984;2023-11-21T02:23:21;9.40;;;5.90;;
69588;SDS011;56792;50.644;17.984;2023-11-21T02:25:56;9.40;;;6.20;;
69588;SDS011;56792;50.644;17.984;2023-11-21T02:28:32;12.40;;;6.30;;
69588;SDS011;56792;50.644;17.984;2023-11-21T02:31:03;10.60;;;8.10;;
69588;SDS011;56792;50.644;17.984;2023-11-21T02:33:35;9.30;;;7.40;;
69588;SDS011;56792;50.644;17.984;2023-11-21T02:36:08;9.90;;;6.60;;
69588;SDS011;56792;50.644;17.984;2023-11-21T02:38:39;9.90;;;6.70;;
69588;SDS011;56792;50.644;17.984;2023-11-21T02:41:10;12.20;;;7.40;;
69588;SDS011;56792;50.644;17.984;2023-11-21T02:43:41;12.80;;;6.20;;
69588;SDS011;56792;50.644;17.984;2023-11-21T02:46:12;10.70;;;5.90;;
69588;SDS011;56792;50.644;17.984;2023-11-21T02:48:43;11.60;;;6.00;;
69588;SDS011;56792;50.644;17.984;2023-11-21T02:51:15;11.10;;;5.40;;
69588;SDS011;56792;50.644;17.984;2023-11-21T02:53:46;10.20;;;5.40;;
69588;SDS011;56792;50.644;17.984;2023-11-21T02:56:17;11.30;;;5.50;;
69588;SDS011;56792;50.644;17.984;2023-11-21T02:58:48;12.90;;;7.00;;
69588;SDS011;56792;50.644;17.984;2023-11-21T03:01:19;9.90;;;5.80;;
69588;SDS011;56792;50.644;17.984;2023-11-21T03:03:52;11.10;;;6.00;;
69588;SDS011;56792;50.644;17.984;2023-11-21T03:06:23;11.40;;;5.70;;
69588;SDS011;56792;50.644;17.984;2023-11-21T03:08:54;11.40;;;5.00;;
69588;SDS011;56792;50.644;17.984;2023-11-21T03:11:25;7.60;;;5.10;;
69588;SDS011;56792;50.644;17.984;2023-11-21T03:13:56;11.00;;;5.60;;
69588;SDS011;56792;50.644;17.984;2023-11-21T03:16:27;8.20;;;5.20;;
69588;SDS011;56792;50.644;17.984;2023-11-21T03:18:59;11.30;;;6.50;;
69588;SDS011;56792;50.644;17.984;2023-11-21T03:21:30;12.60;;;7.40;;
69588;SDS011;56792;50.644;17.984;2023-11-21T03:24:01;16.10;;;8.40;;
69588;SDS011;56792;50.644;17.984;2023-11-21T03:26:33;11.80;;;7.00;;
69588;SDS011;56792;50.644;17.984;2023-11-21T03:29:05;11.70;;;6.50;;
69588;SDS011;56792;50.644;17.984;2023-11-21T03:31:37;14.70;;;8.30;;
69588;SDS011;56792;50.644;17.984;2023-11-21T03:34:09;16.90;;;10.00;;
69588;SDS011;56792;50.644;17.984;2023-11-21T03:36:46;15.80;;;8.80;;
69588;SDS011;56792;50.644;17.984;2023-11-21T03:39:17;12.30;;;6.90;;
69588;SDS011;56792;50.644;17.984;2023-11-21T03:41:48;9.50;;;5.70;;
69588;SDS011;56792;50.644;17.984;2023-11-21T03:44:20;8.90;;;5.40;;
69588;SDS011;56792;50.644;17.984;2023-11-21T03:46:51;7.90;;;4.90;;
69588;SDS011;56792;50.644;17.984;2023-11-21T03:49:22;8.40;;;5.30;;
69588;SDS011;56792;50.644;17.984;2023-11-21T03:51:53;12.10;;;5.80;;
69588;SDS011;56792;50.644;17.984;2023-11-21T03:54:25;8.60;;;5.80;;
69588;SDS011;56792;50.644;17.984;2023-11-21T03:56:56;9.70;;;5.90;;
69588;SDS011;56792;50.644;17.984;2023-11-21T03:59:27;11.20;;;5.80;;
69588;SDS011;56792;50.644;17.984;2023-11-21T04:01:58;12.50;;;6.10;;
69588;SDS011;56792;50.644;17.984;2023-11-21T04:04:29;11.10;;;6.00;;
69588;SDS011;56792;50.644;17.984;2023-11-21T04:07:00;10.40;;;5.90;;
69588;SDS011;56792;50.644;17.984;2023-11-21T04:09:32;8.70;;;4.80;;
69588;SDS011;56792;50.644;17.984;2023-11-21T04:12:05;11.30;;;6.30;;
69588;SDS011;56792;50.644;17.984;2023-11-21T04:14:38;11.50;;;6.30;;
69588;SDS011;56792;50.644;17.984;2023-11-21T04:17:09;9.00;;;5.50;;
69588;SDS011;56792;50.644;17.984;2023-11-21T04:19:40;13.20;;;8.00;;
69588;SDS011;56792;50.644;17.984;2023-11-21T04:22:11;15.00;;;9.10;;
69588;SDS011;56792;50.644;17.984;2023-11-21T04:24:42;13.80;;;8.20;;
69588;SDS011;56792;50.644;17.984;2023-11-21T04:27:13;15.60;;;9.60;;
69588;SDS011;56792;50.644;17.984;2023-11-21T04:29:46;11.00;;;8.00;;
69588;SDS011;56792;50.644;17.984;2023-11-21T04:32:17;12.20;;;7.20;;
69588;SDS011;56792;50.644;17.984;2023-11-21T04:34:48;11.80;;;7.10;;
69588;SDS011;56792;50.644;17.984;2023-11-21T04:37:19;11.80;;;6.70;;
69588;SDS011;56792;50.644;17.984;2023-11-21T04:39:50;15.10;;;7.70;;
69588;SDS011;56792;50.644;17.984;2023-11-21T04:42:21;13.70;;;7.20;;
69588;SDS011;56792;50.644;17.984;2023-11-21T04:44:52;10.90;;;7.20;;
69588;SDS011;56792;50.644;17.984;2023-11-21T04:47:24;10.10;;;7.20;;
69588;SDS011;56792;50.644;17.984;2023-11-21T04:49:55;13.10;;;7.60;;
69588;SDS011;56792;50.644;17.984;2023-11-21T04:52:26;11.40;;;7.60;;
69588;SDS011;56792;50.644;17.984;2023-11-21T04:54:57;10.30;;;7.50;;
69588;SDS011;56792;50.644;17.984;2023-11-21T04:57:29;12.00;;;7.80;;
69588;SDS011;56792;50.644;17.984;2023-11-21T05:00:00;11.30;;;8.70;;
69588;SDS011;56792;50.644;17.984;2023-11-21T05:02:33;11.40;;;7.40;;
69588;SDS011;56792;50.644;17.984;2023-11-21T05:05:08;14.40;;;8.40;;
69588;SDS011;56792;50.644;17.984;2023-11-21T05:07:40;16.20;;;9.30;;
69588;SDS011;56792;50.644;17.984;2023-11-21T05:10:11;12.80;;;8.40;;
69588;SDS011;56792;50.644;17.984;2023-11-21T05:12:43;12.80;;;8.20;;
69588;SDS011;56792;50.644;17.984;2023-11-21T05:15:15;9.90;;;7.10;;
69588;SDS011;56792;50.644;17.984;2023-11-21T05:17:46;11.80;;;7.90;;
69588;SDS011;56792;50.644;17.984;2023-11-21T05:20:18;11.40;;;7.70;;
69588;SDS011;56792;50.644;17.984;2023-11-21T05:22:49;12.10;;;7.40;;
69588;SDS011;56792;50.644;17.984;2023-11-21T05:25:20;12.20;;;8.00;;
69588;SDS011;56792;50.644;17.984;2023-11-21T05:27:51;13.40;;;8.00;;
69588;SDS011;56792;50.644;17.984;2023-11-21T05:30:23;10.80;;;7.50;;
69588;SDS011;56792;50.644;17.984;2023-11-21T05:32:54;10.60;;;6.90;;
69588;SDS011;56792;50.644;17.984;2023-11-21T05:35:25;16.00;;;8.20;;
69588;SDS011;56792;50.644;17.984;2023-11-21T05:37:56;14.00;;;8.80;;
69588;SDS011;56792;50.644;17.984;2023-11-21T05:40:27;16.30;;;8.60;;
69588;SDS011;56792;50.644;17.984;2023-11-21T05:42:58;13.10;;;8.40;;
69588;SDS011;56792;50.644;17.984;2023-11-21T05:45:30;15.00;;;8.00;;
69588;SDS011;56792;50.644;17.984;2023-11-21T05:48:01;11.90;;;8.70;;
69588;SDS011;56792;50.644;17.984;2023-11-21T05:50:32;13.20;;;9.10;;
69588;SDS011;56792;50.644;17.984;2023-11-21T05:53:03;14.00;;;8.10;;
69588;SDS011;56792;50.644;17.984;2023-11-21T05:55:35;12.00;;;8.00;;
69588;SDS011;56792;50.644;17.984;2023-11-21T05:58:07;12.40;;;7.50;;
69588;SDS011;56792;50.644;17.984;2023-11-21T06:00:38;15.20;;;8.90;;
69588;SDS011;56792;50.644;17.984;2023-11-21T06:03:09;25.00;;;11.80;;
69588;SDS011;56792;50.644;17.984;2023-11-21T06:05:40;24.60;;;11.30;;
69588;SDS011;56792;50.644;17.984;2023-11-21T06:08:11;22.80;;;11.80;;
69588;SDS011;56792;50.644;17.984;2023-11-21T06:10:45;25.50;;;13.60;;
69588;SDS011;56792;50.644;17.984;2023-11-21T06:13:17;22.60;;;12.40;;
69588;SDS011;56792;50.644;17.984;2023-11-21T06:15:52;21.70;;;11.70;;
69588;SDS011;56792;50.644;17.984;2023-11-21T06:18:23;18.10;;;10.70;;
69588;SDS011;56792;50.644;17.984;2023-11-21T06:20:54;19.80;;;9.60;;
69588;SDS011;56792;50.644;17.984;2023-11-21T06:23:26;15.90;;;9.70;;
69588;SDS011;56792;50.644;17.984;2023-11-21T06:25:57;15.50;;;8.60;;
69588;SDS011;56792;50.644;17.984;2023-11-21T06:28:28;14.10;;;8.10;;
69588;SDS011;56792;50.644;17.984;2023-11-21T06:30:59;18.00;;;9.90;;
69588;SDS011;56792;50.644;17.984;2023-11-21T06:33:33;21.40;;;11.20;;
69588;SDS011;56792;50.644;17.984;2023-11-21T06:36:04;34.50;;;13.90;;
69588;SDS011;56792;50.644;17.984;2023-11-21T06:38:38;24.30;;;13.00;;
69588;SDS011;56792;50.644;17.984;2023-11-21T06:41:09;29.40;;;14.10;;
69588;SDS011;56792;50.644;17.984;2023-11-21T06:43:42;42.60;;;16.10;;
69588;SDS011;56792;50.644;17.984;2023-11-21T06:46:14;41.40;;;15.40;;
69588;SDS011;56792;50.644;17.984;2023-11-21T06:48:47;28.80;;;10.20;;
69588;SDS011;56792;50.644;17.984;2023-11-21T06:51:18;22.80;;;9.30;;
69588;SDS011;56792;50.644;17.984;2023-11-21T06:53:49;16.70;;;8.40;;
69588;SDS011;56792;50.644;17.984;2023-11-21T06:56:20;18.50;;;9.10;;
69588;SDS011;56792;50.644;17.984;2023-11-21T06:58:51;16.60;;;8.30;;
69588;SDS011;56792;50.644;17.984;2023-11-21T07:01:23;15.00;;;8.20;;
69588;SDS011;56792;50.644;17.984;2023-11-21T07:03:54;14.60;;;9.00;;
69588;SDS011;56792;50.644;17.984;2023-11-21T07:06:24;14.00;;;7.70;;
69588;SDS011;56792;50.644;17.984;2023-11-21T07:08:55;15.40;;;7.50;;
69588;SDS011;56792;50.644;17.984;2023-11-21T07:11:27;14.50;;;8.10;;
69588;SDS011;56792;50.644;17.984;2023-11-21T07:13:58;14.00;;;7.10;;
69588;SDS011;56792;50.644;17.984;2023-11-21T07:16:33;12.70;;;7.10;;
69588;SDS011;56792;50.644;17.984;2023-11-21T07:19:05;11.00;;;6.70;;
69588;SDS011;56792;50.644;17.984;2023-11-21T07:21:37;12.30;;;7.00;;
69588;SDS011;56792;50.644;17.984;2023-11-21T07:24:09;12.20;;;6.90;;
69588;SDS011;56792;50.644;17.984;2023-11-21T07:26:40;9.90;;;6.30;;
69588;SDS011;56792;50.644;17.984;2023-11-21T07:29:11;10.70;;;6.40;;
69588;SDS011;56792;50.644;17.984;2023-11-21T07:31:42;12.80;;;6.30;;
69588;SDS011;56792;50.644;17.984;2023-11-21T07:34:13;11.30;;;6.20;;
69588;SDS011;56792;50.644;17.984;2023-11-21T07:36:44;11.60;;;6.00;;
69588;SDS011;56792;50.644;17.984;2023-11-21T07:39:16;8.90;;;5.80;;
69588;SDS011;56792;50.644;17.984;2023-11-21T07:41:47;11.40;;;5.70;;
69588;SDS011;56792;50.644;17.984;2023-11-21T07:44:18;10.20;;;6.10;;
69588;SDS011;56792;50.644;17.984;2023-11-21T07:46:49;9.90;;;6.00;;
69588;SDS011;56792;50.644;17.984;2023-11-21T07:49:20;10.70;;;6.40;;
69588;SDS011;56792;50.644;17.984;2023-11-21T07:51:51;13.70;;;7.40;;
69588;SDS011;56792;50.644;17.984;2023-11-21T07:54:22;12.80;;;6.60;;
69588;SDS011;56792;50.644;17.984;2023-11-21T07:56:53;17.20;;;7.20;;
69588;SDS011;56792;50.644;17.984;2023-11-21T07:59:24;14.40;;;6.10;;
69588;SDS011;56792;50.644;17.984;2023-11-21T08:01:55;11.90;;;6.60;;
69588;SDS011;56792;50.644;17.984;2023-11-21T08:04:27;11.10;;;5.80;;
69588;SDS011;56792;50.644;17.984;2023-11-21T08:07:00;9.30;;;5.90;;
69588;SDS011;56792;50.644;17.984;2023-11-21T08:09:32;13.70;;;6.00;;
69588;SDS011;56792;50.644;17.984;2023-11-21T08:12:03;9.60;;;6.70;;
69588;SDS011;56792;50.644;17.984;2023-11-21T08:14:35;10.60;;;5.70;;
69588;SDS011;56792;50.644;17.984;2023-11-21T08:17:08;12.90;;;5.80;;
69588;SDS011;56792;50.644;17.984;2023-11-21T08:19:39;7.50;;;5.20;;
69588;SDS011;56792;50.644;17.984;2023-11-21T08:22:10;9.60;;;5.10;;
69588;SDS011;56792;50.644;17.984;2023-11-21T08:24:41;6.50;;;4.80;;
69588;SDS011;56792;50.644;17.984;2023-11-21T08:27:12;6.30;;;4.30;;
69588;SDS011;56792;50.644;17.984;2023-11-21T08:29:44;7.20;;;4.30;;
69588;SDS011;56792;50.644;17.984;2023-11-21T08:32:15;5.80;;;4.50;;
69588;SDS011;56792;50.644;17.984;2023-11-21T08:34:46;8.00;;;4.40;;
69588;SDS011;56792;50.644;17.984;2023-11-21T08:37:19;6.10;;;4.60;;
69588;SDS011;56792;50.644;17.984;2023-11-21T08:39:50;8.30;;;4.50;;
69588;SDS011;56792;50.644;17.984;2023-11-21T08:42:22;7.30;;;4.60;;
69588;SDS011;56792;50.644;17.984;2023-11-21T08:44:53;7.50;;;4.90;;
69588;SDS011;56792;50.644;17.984;2023-11-21T08:47:25;6.80;;;3.70;;
69588;SDS011;56792;50.644;17.984;2023-11-21T08:49:57;5.10;;;4.00;;
69588;SDS011;56792;50.644;17.984;2023-11-21T08:52:28;5.80;;;4.30;;
69588;SDS011;56792;50.644;17.984;2023-11-21T08:54:59;8.20;;;5.00;;
69588;SDS011;56792;50.644;17.984;2023-11-21T08:57:36;5.80;;;4.10;;
69588;SDS011;56792;50.644;17.984;2023-11-21T09:00:11;8.70;;;3.90;;
69588;SDS011;56792;50.644;17.984;2023-11-21T09:02:45;7.50;;;4.10;;
69588;SDS011;56792;50.644;17.984;2023-11-21T09:05:16;8.80;;;3.80;;
69588;SDS011;56792;50.644;17.984;2023-11-21T09:07:48;7.40;;;3.80;;
69588;SDS011;56792;50.644;17.984;2023-11-21T09:10:20;6.10;;;4.20;;
69588;SDS011;56792;50.644;17.984;2023-11-21T09:12:53;5.90;;;3.80;;
69588;SDS011;56792;50.644;17.984;2023-11-21T09:15:25;5.20;;;3.80;;
69588;SDS011;56792;50.644;17.984;2023-11-21T09:17:56;5.60;;;4.00;;
69588;SDS011;56792;50.644;17.984;2023-11-21T09:20:27;7.20;;;4.50;;
69588;SDS011;56792;50.644;17.984;2023-11-21T09:22:58;5.80;;;3.80;;
69588;SDS011;56792;50.644;17.984;2023-11-21T09:25:29;6.40;;;4.50;;
69588;SDS011;56792;50.644;17.984;2023-11-21T09:28:00;7.00;;;4.40;;
69588;SDS011;56792;50.644;17.984;2023-11-21T09:30:33;8.10;;;4.80;;
69588;SDS011;56792;50.644;17.984;2023-11-21T09:33:05;8.00;;;4.60;;
69588;SDS011;56792;50.644;17.984;2023-11-21T09:35:38;7.50;;;4.60;;
69588;SDS011;56792;50.644;17.984;2023-11-21T09:38:12;9.10;;;4.80;;
69588;SDS011;56792;50.644;17.984;2023-11-21T09:40:43;8.50;;;5.00;;
69588;SDS011;56792;50.644;17.984;2023-11-21T09:43:17;7.00;;;4.40;;
69588;SDS011;56792;50.644;17.984;2023-11-21T09:45:51;6.60;;;4.90;;
69588;SDS011;56792;50.644;17.984;2023-11-21T09:48:30;6.70;;;4.60;;
69588;SDS011;56792;50.644;17.984;2023-11-21T09:51:02;8.20;;;5.00;;
69588;SDS011;56792;50.644;17.984;2023-11-21T09:53:35;8.20;;;4.70;;
69588;SDS011;56792;50.644;17.984;2023-11-21T09:56:08;6.20;;;4.80;;
69588;SDS011;56792;50.644;17.984;2023-11-21T09:58:39;8.10;;;4.70;;
69588;SDS011;56792;50.644;17.984;2023-11-21T10:01:10;8.60;;;5.00;;
69588;SDS011;56792;50.644;17.984;2023-11-21T10:03:43;9.10;;;4.90;;
69588;SDS011;56792;50.644;17.984;2023-11-21T10:06:15;7.50;;;4.80;;
69588;SDS011;56792;50.644;17.984;2023-11-21T10:08:49;7.60;;;4.70;;
69588;SDS011;56792;50.644;17.984;2023-11-21T10:11:21;7.80;;;4.50;;
69588;SDS011;56792;50.644;17.984;2023-11-21T10:13:55;8.60;;;5.10;;
69588;SDS011;56792;50.644;17.984;2023-11-21T10:16:29;8.80;;;4.90;;
69588;SDS011;56792;50.644;17.984;2023-11-21T10:19:00;9.00;;;5.30;;
69588;SDS011;56792;50.644;17.984;2023-11-21T10:21:35;8.00;;;5.00;;
69588;SDS011;56792;50.644;17.984;2023-11-21T10:24:07;9.40;;;5.30;;
69588;SDS011;56792;50.644;17.984;2023-11-21T10:26:40;10.20;;;5.90;;
69588;SDS011;56792;50.644;17.984;2023-11-21T10:29:15;9.70;;;5.70;;
69588;SDS011;56792;50.644;17.984;2023-11-21T10:31:48;10.40;;;6.10;;
69588;SDS011;56792;50.644;17.984;2023-11-21T10:34:22;9.40;;;5.80;;
69588;SDS011;56792;50.644;17.984;2023-11-21T10:36:55;10.70;;;6.70;;
69588;SDS011;56792;50.644;17.984;2023-11-21T10:39:27;10.10;;;6.20;;
69588;SDS011;56792;50.644;17.984;2023-11-21T10:41:59;10.20;;;6.10;;
69588;SDS011;56792;50.644;17.984;2023-11-21T10:44:30;11.70;;;5.60;;
69588;SDS011;56792;50.644;17.984;2023-11-21T10:47:01;11.50;;;6.20;;
69588;SDS011;56792;50.644;17.984;2023-11-21T10:49:33;9.70;;;6.40;;
69588;SDS011;56792;50.644;17.984;2023-11-21T10:52:06;11.30;;;7.30;;
69588;SDS011;56792;50.644;17.984;2023-11-21T10:54:45;16.40;;;8.60;;
69588;SDS011;56792;50.644;17.984;2023-11-21T10:57:18;85.00;;;34.00;;
69588;SDS011;56792;50.644;17.984;2023-11-21T10:59:52;92.40;;;37.10;;
69588;SDS011;56792;50.644;17.984;2023-11-21T11:02:26;31.60;;;13.30;;
69588;SDS011;56792;50.644;17.984;2023-11-21T11:05:01;21.30;;;8.40;;
69588;SDS011;56792;50.644;17.984;2023-11-21T11:07:36;18.60;;;8.00;;
69588;SDS011;56792;50.644;17.984;2023-11-21T11:10:12;21.30;;;8.50;;
69588;SDS011;56792;50.644;17.984;2023-11-21T11:12:47;17.10;;;7.80;;
69588;SDS011;56792;50.644;17.984;2023-11-21T11:15:20;17.20;;;7.20;;
69588;SDS011;56792;50.644;17.984;2023-11-21T11:17:53;20.10;;;7.80;;
69588;SDS011;56792;50.644;17.984;2023-11-21T11:20:29;17.60;;;7.50;;
69588;SDS011;56792;50.644;17.984;2023-11-21T11:23:22;17.60;;;6.90;;
69588;SDS011;56792;50.644;17.984;2023-11-21T11:26:16;16.40;;;7.90;;
69588;SDS011;56792;50.644;17.984;2023-11-21T11:29:03;14.70;;;7.00;;
69588;SDS011;56792;50.644;17.984;2023-11-21T11:31:52;16.50;;;7.10;;
69588;SDS011;56792;50.644;17.984;2023-11-21T11:34:35;14.30;;;7.20;;
69588;SDS011;56792;50.644;17.984;2023-11-21T11:37:11;12.40;;;7.30;;
69588;SDS011;56792;50.644;17.984;2023-11-21T11:39:43;15.40;;;8.00;;
69588;SDS011;56792;50.644;17.984;2023-11-21T11:42:16;15.50;;;7.70;;
69588;SDS011;56792;50.644;17.984;2023-11-21T11:44:52;17.00;;;8.60;;
69588;SDS011;56792;50.644;17.984;2023-11-21T11:47:29;19.80;;;9.40;;
69588;SDS011;56792;50.644;17.984;2023-11-21T11:50:09;15.00;;;8.70;;
69588;SDS011;56792;50.644;17.984;2023-11-21T11:52:46;20.20;;;9.30;;
69588;SDS011;56792;50.644;17.984;2023-11-21T11:55:19;19.00;;;8.70;;
69588;SDS011;56792;50.644;17.984;2023-11-21T11:57:53;12.90;;;7.50;;
69588;SDS011;56792;50.644;17.984;2023-11-21T12:00:35;15.60;;;7.90;;
69588;SDS011;56792;50.644;17.984;2023-11-21T12:03:08;15.20;;;8.20;;
69588;SDS011;56792;50.644;17.984;2023-11-21T12:05:39;13.70;;;8.00;;
69588;SDS011;56792;50.644;17.984;2023-11-21T12:08:13;12.00;;;7.30;;
69588;SDS011;56792;50.644;17.984;2023-11-21T12:10:47;14.60;;;7.50;;
69588;SDS011;56792;50.644;17.984;2023-11-21T12:13:18;14.00;;;9.20;;
69588;SDS011;56792;50.644;17.984;2023-11-21T12:15:49;15.60;;;8.70;;
69588;SDS011;56792;50.644;17.984;2023-11-21T12:18:20;11.90;;;7.40;;
69588;SDS011;56792;50.644;17.984;2023-11-21T12:20:54;12.50;;;7.60;;
69588;SDS011;56792;50.644;17.984;2023-11-21T12:23:25;12.60;;;8.60;;
69588;SDS011;56792;50.644;17.984;2023-11-21T12:25:57;13.70;;;8.60;;
69588;SDS011;56792;50.644;17.984;2023-11-21T12:28:28;11.90;;;8.70;;
69588;SDS011;56792;50.644;17.984;2023-11-21T12:31:00;13.80;;;8.40;;
69588;SDS011;56792;50.644;17.984;2023-11-21T12:33:32;16.80;;;10.00;;
69588;SDS011;56792;50.644;17.984;2023-11-21T12:36:04;14.10;;;9.90;;
69588;SDS011;56792;50.644;17.984;2023-11-21T12:38:38;17.90;;;10.70;;
69588;SDS011;56792;50.644;17.984;2023-11-21T12:41:10;18.00;;;11.60;;
69588;SDS011;56792;50.644;17.984;2023-11-21T12:43:41;19.50;;;12.00;;
69588;SDS011;56792;50.644;17.984;2023-11-21T12:46:13;16.30;;;10.90;;
69588;SDS011;56792;50.644;17.984;2023-11-21T12:48:45;16.20;;;10.80;;
69588;SDS011;56792;50.644;17.984;2023-11-21T12:51:17;16.60;;;11.60;;
69588;SDS011;56792;50.644;17.984;2023-11-21T12:53:50;17.60;;;11.20;;
69588;SDS011;56792;50.644;17.984;2023-11-21T12:56:23;14.70;;;9.80;;
69588;SDS011;56792;50.644;17.984;2023-11-21T12:58:56;17.30;;;10.40;;
69588;SDS011;56792;50.644;17.984;2023-11-21T13:01:29;16.80;;;10.10;;
69588;SDS011;56792;50.644;17.984;2023-11-21T13:04:00;15.30;;;9.90;;
69588;SDS011;56792;50.644;17.984;2023-11-21T13:06:33;14.30;;;9.20;;
69588;SDS011;56792;50.644;17.984;2023-11-21T13:09:09;14.60;;;10.00;;
69588;SDS011;56792;50.644;17.984;2023-11-21T13:11:41;19.40;;;10.70;;
69588;SDS011;56792;50.644;17.984;2023-11-21T13:14:13;16.80;;;10.70;;
69588;SDS011;56792;50.644;17.984;2023-11-21T13:16:45;16.80;;;11.20;;
69588;SDS011;56792;50.644;17.984;2023-11-21T13:19:17;19.40;;;11.50;;
69588;SDS011;56792;50.644;17.984;2023-11-21T13:21:50;23.60;;;13.80;;
69588;SDS011;56792;50.644;17.984;2023-11-21T13:24:22;28.10;;;15.80;;
69588;SDS011;56792;50.644;17.984;2023-11-21T13:26:54;23.30;;;13.60;;
69588;SDS011;56792;50.644;17.984;2023-11-21T13:29:26;25.30;;;13.20;;
69588;SDS011;56792;50.644;17.984;2023-11-21T13:31:57;23.50;;;13.10;;
69588;SDS011;56792;50.644;17.984;2023-11-21T13:34:31;30.50;;;15.70;;
69588;SDS011;56792;50.644;17.984;2023-11-21T13:37:05;27.20;;;14.70;;
69588;SDS011;56792;50.644;17.984;2023-11-21T13:39:36;25.00;;;13.30;;
69588;SDS011;56792;50.644;17.984;2023-11-21T13:42:12;27.00;;;13.20;;
69588;SDS011;56792;50.644;17.984;2023-11-21T13:44:44;31.10;;;15.90;;
69588;SDS011;56792;50.644;17.984;2023-11-21T13:47:17;32.50;;;14.50;;
69588;SDS011;56792;50.644;17.984;2023-11-21T13:49:48;32.30;;;15.40;;
69588;SDS011;56792;50.644;17.984;2023-11-21T13:52:19;31.00;;;14.30;;
69588;SDS011;56792;50.644;17.984;2023-11-21T13:54:54;31.30;;;16.10;;
69588;SDS011;56792;50.644;17.984;2023-11-21T13:57:26;35.10;;;17.30;;
69588;SDS011;56792;50.644;17.984;2023-11-21T13:59:57;37.10;;;17.20;;
69588;SDS011;56792;50.644;17.984;2023-11-21T14:02:32;33.40;;;16.00;;
69588;SDS011;56792;50.644;17.984;2023-11-21T14:05:08;30.40;;;16.80;;
69588;SDS011;56792;50.644;17.984;2023-11-21T14:07:41;33.30;;;16.50;;
69588;SDS011;56792;50.644;17.984;2023-11-21T14:10:15;40.30;;;20.50;;
69588;SDS011;56792;50.644;17.984;2023-11-21T14:12:50;50.10;;;28.00;;
69588;SDS011;56792;50.644;17.984;2023-11-21T14:15:21;34.70;;;22.00;;
69588;SDS011;56792;50.644;17.984;2023-11-21T14:17:52;31.70;;;17.30;;
69588;SDS011;56792;50.644;17.984;2023-11-21T14:20:23;27.40;;;15.00;;
69588;SDS011;56792;50.644;17.984;2023-11-21T14:22:54;26.60;;;14.30;;
69588;SDS011;56792;50.644;17.984;2023-11-21T14:25:25;21.30;;;12.50;;
69588;SDS011;56792;50.644;17.984;2023-11-21T14:27:56;24.40;;;12.30;;
69588;SDS011;56792;50.644;17.984;2023-11-21T14:30:27;27.40;;;14.80;;
69588;SDS011;56792;50.644;17.984;2023-11-21T14:33:00;25.00;;;14.70;;
69588;SDS011;56792;50.644;17.984;2023-11-21T14:35:31;25.00;;;13.90;;
69588;SDS011;56792;50.644;17.984;2023-11-21T14:38:02;19.90;;;12.90;;
69588;SDS011;56792;50.644;17.984;2023-11-21T14:40:34;17.20;;;10.70;;
69588;SDS011;56792;50.644;17.984;2023-11-21T14:43:05;17.30;;;11.50;;
69588;SDS011;56792;50.644;17.984;2023-11-21T14:45:37;19.60;;;11.20;;
69588;SDS011;56792;50.644;17.984;2023-11-21T14:48:08;20.80;;;11.90;;
69588;SDS011;56792;50.644;17.984;2023-11-21T14:50:44;19.50;;;10.50;;
69588;SDS011;56792;50.644;17.984;2023-11-21T14:53:39;18.90;;;10.20;;